Shavano Park, Texas
Current Conditions -  °F | °C
As of 1:51 PM on Monday 22 Dec 2014 (Local Time) from KSAT Reporting Station
Broken Clouds Broken Clouds  
Wind Chill: 21°   Ceiling: 25000
Heat Index: 21°   Visibility: 10mi
Dew Point: 12°   Wind: 12mph
Humidity: 55%   Direction: 230°SW
Pressure: 29.66"   Gusts: NA
Location:  29.5766°N, 98.5421°W
Report Text: KSAT 221951Z 23010KT 10SM FEW180 BKN250 21/12 A2966 RMK AO2 SLP029 T02110117
Loading
Personal Weather Stations






























Interactive Weather Map New forecast layout! Learn more

10-Day Weather Forecast

Advertisements
Track Severe Weather on mobile